Numa, Iowa
Current Conditions -  °F | °C
As of 11:50 PM on Saturday 20 Dec 2014 (Local Time) from KTVK Reporting Station
Overcast Overcast  
Wind Chill: 30°   Ceiling: 800
Heat Index: 37°   Visibility: 10mi
Dew Point: 37°   Wind: 12mph
Humidity: 100%   Direction: 180°S
Pressure: 30.13"   Gusts: NA
Location:  40.71°N, 92.9234°W
Report Text: KTVK 210550Z AUTO 18010KT 10SM OVC008 03/03 A3013 RMK AO2
Loading
Personal Weather Stations






























Interactive Weather Map New forecast layout! Learn more

10-Day Weather Forecast

Advertisements
Track Severe Weather on mobile